sensor_id;sensor_type;location;lat;lon;timestamp;temperature;humidity
38325;DHT22;24126;52.672;13.622;2023-02-11T00:00:16;8.00;66.20
38325;DHT22;24126;52.672;13.622;2023-02-11T00:02:43;7.90;66.20
38325;DHT22;24126;52.672;13.622;2023-02-11T00:05:10;7.90;66.20
38325;DHT22;24126;52.672;13.622;2023-02-11T00:07:37;8.00;66.30
38325;DHT22;24126;52.672;13.622;2023-02-11T00:10:04;8.00;66.30
38325;DHT22;24126;52.672;13.622;2023-02-11T00:12:33;8.00;66.30
38325;DHT22;24126;52.672;13.622;2023-02-11T00:15:00;8.00;66.30
38325;DHT22;24126;52.672;13.622;2023-02-11T00:17:27;8.00;66.20
38325;DHT22;24126;52.672;13.622;2023-02-11T00:19:54;8.00;66.20
38325;DHT22;24126;52.672;13.622;2023-02-11T00:22:21;8.10;66.20
38325;DHT22;24126;52.672;13.622;2023-02-11T00:24:48;8.10;66.20
38325;DHT22;24126;52.672;13.622;2023-02-11T00:27:15;8.10;66.20
38325;DHT22;24126;52.672;13.622;2023-02-11T00:29:44;8.10;66.20
38325;DHT22;24126;52.672;13.622;2023-02-11T00:32:11;8.10;66.20
38325;DHT22;24126;52.672;13.622;2023-02-11T00:34:38;8.10;66.20
38325;DHT22;24126;52.672;13.622;2023-02-11T00:37:05;8.20;66.20
38325;DHT22;24126;52.672;13.622;2023-02-11T00:39:32;8.10;66.20
38325;DHT22;24126;52.672;13.622;2023-02-11T00:42:02;8.10;66.20
38325;DHT22;24126;52.672;13.622;2023-02-11T00:44:29;8.20;66.20
38325;DHT22;24126;52.672;13.622;2023-02-11T00:46:56;8.20;66.20
38325;DHT22;24126;52.672;13.622;2023-02-11T00:49:23;8.20;66.20
38325;DHT22;24126;52.672;13.622;2023-02-11T00:51:50;8.20;66.20
38325;DHT22;24126;52.672;13.622;2023-02-11T00:54:19;8.20;66.30
38325;DHT22;24126;52.672;13.622;2023-02-11T00:56:46;8.20;66.20
38325;DHT22;24126;52.672;13.622;2023-02-11T00:59:13;8.20;66.20
38325;DHT22;24126;52.672;13.622;2023-02-11T01:01:43;8.20;66.20
38325;DHT22;24126;52.672;13.622;2023-02-11T01:04:10;8.20;66.20
38325;DHT22;24126;52.672;13.622;2023-02-11T01:06:37;8.20;66.20
38325;DHT22;24126;52.672;13.622;2023-02-11T01:09:04;8.20;66.30
38325;DHT22;24126;52.672;13.622;2023-02-11T01:11:34;8.20;66.30
38325;DHT22;24126;52.672;13.622;2023-02-11T01:14:01;8.20;66.40
38325;DHT22;24126;52.672;13.622;2023-02-11T01:16:28;8.20;66.50
38325;DHT22;24126;52.672;13.622;2023-02-11T01:18:55;8.30;66.60
38325;DHT22;24126;52.672;13.622;2023-02-11T01:21:24;8.20;66.70
38325;DHT22;24126;52.672;13.622;2023-02-11T01:23:51;8.20;66.70
38325;DHT22;24126;52.672;13.622;2023-02-11T01:26:18;8.20;66.80
38325;DHT22;24126;52.672;13.622;2023-02-11T01:28:45;8.20;66.80
38325;DHT22;24126;52.672;13.622;2023-02-11T01:31:12;8.30;67.00
38325;DHT22;24126;52.672;13.622;2023-02-11T01:33:39;8.30;67.10
38325;DHT22;24126;52.672;13.622;2023-02-11T01:36:07;8.30;67.10
38325;DHT22;24126;52.672;13.622;2023-02-11T01:38:34;8.30;67.20
38325;DHT22;24126;52.672;13.622;2023-02-11T01:41:05;8.30;67.20
38325;DHT22;24126;52.672;13.622;2023-02-11T01:43:36;8.40;67.20
38325;DHT22;24126;52.672;13.622;2023-02-11T01:46:11;8.30;67.10
38325;DHT22;24126;52.672;13.622;2023-02-11T01:48:41;8.40;67.20
38325;DHT22;24126;52.672;13.622;2023-02-11T01:51:13;8.40;67.20
38325;DHT22;24126;52.672;13.622;2023-02-11T01:53:42;8.40;67.10
38325;DHT22;24126;52.672;13.622;2023-02-11T01:56:28;8.40;67.20
38325;DHT22;24126;52.672;13.622;2023-02-11T01:59:16;8.40;67.30
38325;DHT22;24126;52.672;13.622;2023-02-11T02:01:47;8.40;67.30
38325;DHT22;24126;52.672;13.622;2023-02-11T02:04:16;8.40;67.40
38325;DHT22;24126;52.672;13.622;2023-02-11T02:06:55;8.50;67.50
38325;DHT22;24126;52.672;13.622;2023-02-11T02:09:26;8.50;67.50
38325;DHT22;24126;52.672;13.622;2023-02-11T02:11:54;8.50;67.50
38325;DHT22;24126;52.672;13.622;2023-02-11T02:14:21;8.50;67.70
38325;DHT22;24126;52.672;13.622;2023-02-11T02:16:48;8.50;68.30
38325;DHT22;24126;52.672;13.622;2023-02-11T02:27:36;8.50;67.80
38325;DHT22;24126;52.672;13.622;2023-02-11T02:30:15;8.50;67.80
38325;DHT22;24126;52.672;13.622;2023-02-11T02:32:48;8.50;67.80
38325;DHT22;24126;52.672;13.622;2023-02-11T02:40:44;8.50;67.80
38325;DHT22;24126;52.672;13.622;2023-02-11T02:43:13;8.50;67.90
38325;DHT22;24126;52.672;13.622;2023-02-11T02:45:41;8.60;67.90
38325;DHT22;24126;52.672;13.622;2023-02-11T02:48:21;8.60;67.80
38325;DHT22;24126;52.672;13.622;2023-02-11T02:50:49;8.60;67.80
38325;DHT22;24126;52.672;13.622;2023-02-11T02:53:35;8.60;67.80
38325;DHT22;24126;52.672;13.622;2023-02-11T02:56:17;8.60;67.80
38325;DHT22;24126;52.672;13.622;2023-02-11T03:03:51;8.60;67.90
38325;DHT22;24126;52.672;13.622;2023-02-11T03:06:23;8.60;67.90
38325;DHT22;24126;52.672;13.622;2023-02-11T03:08:55;8.60;67.90
38325;DHT22;24126;52.672;13.622;2023-02-11T03:11:22;8.60;67.90
38325;DHT22;24126;52.672;13.622;2023-02-11T03:13:50;8.60;68.00
38325;DHT22;24126;52.672;13.622;2023-02-11T03:16:18;8.60;68.00
38325;DHT22;24126;52.672;13.622;2023-02-11T03:18:48;8.60;68.00
38325;DHT22;24126;52.672;13.622;2023-02-11T03:21:16;8.60;68.10
38325;DHT22;24126;52.672;13.622;2023-02-11T03:23:53;8.60;68.10
38325;DHT22;24126;52.672;13.622;2023-02-11T03:26:29;8.60;68.10
38325;DHT22;24126;52.672;13.622;2023-02-11T03:29:00;8.60;68.10
38325;DHT22;24126;52.672;13.622;2023-02-11T03:33:58;8.60;68.20
38325;DHT22;24126;52.672;13.622;2023-02-11T03:36:44;8.60;68.20
38325;DHT22;24126;52.672;13.622;2023-02-11T03:39:15;8.60;68.20
38325;DHT22;24126;52.672;13.622;2023-02-11T03:41:43;8.60;68.20
38325;DHT22;24126;52.672;13.622;2023-02-11T03:44:13;8.60;68.40
38325;DHT22;24126;52.672;13.622;2023-02-11T03:46:42;8.60;68.40
38325;DHT22;24126;52.672;13.622;2023-02-11T03:49:10;8.60;68.40
38325;DHT22;24126;52.672;13.622;2023-02-11T03:51:38;8.60;68.40
38325;DHT22;24126;52.672;13.622;2023-02-11T03:54:10;8.60;68.40
38325;DHT22;24126;52.672;13.622;2023-02-11T03:56:42;8.70;68.50
38325;DHT22;24126;52.672;13.622;2023-02-11T03:59:10;8.60;68.60
38325;DHT22;24126;52.672;13.622;2023-02-11T04:01:37;8.60;68.60
38325;DHT22;24126;52.672;13.622;2023-02-11T04:04:05;8.70;68.60
38325;DHT22;24126;52.672;13.622;2023-02-11T04:06:32;8.60;68.70
38325;DHT22;24126;52.672;13.622;2023-02-11T04:08:59;8.60;68.70
38325;DHT22;24126;52.672;13.622;2023-02-11T04:11:26;8.60;68.80
38325;DHT22;24126;52.672;13.622;2023-02-11T04:13:53;8.70;68.80
38325;DHT22;24126;52.672;13.622;2023-02-11T04:16:20;8.60;68.90
38325;DHT22;24126;52.672;13.622;2023-02-11T04:18:47;8.70;69.00
38325;DHT22;24126;52.672;13.622;2023-02-11T04:21:14;8.70;69.10
38325;DHT22;24126;52.672;13.622;2023-02-11T04:23:41;8.70;69.00
38325;DHT22;24126;52.672;13.622;2023-02-11T04:26:08;8.70;69.00
38325;DHT22;24126;52.672;13.622;2023-02-11T04:28:35;8.70;69.10
38325;DHT22;24126;52.672;13.622;2023-02-11T04:31:02;8.70;69.10
38325;DHT22;24126;52.672;13.622;2023-02-11T04:33:29;8.70;69.10
38325;DHT22;24126;52.672;13.622;2023-02-11T04:35:56;8.70;69.20
38325;DHT22;24126;52.672;13.622;2023-02-11T04:38:23;8.70;69.30
38325;DHT22;24126;52.672;13.622;2023-02-11T04:40:50;8.70;69.40
38325;DHT22;24126;52.672;13.622;2023-02-11T04:43:17;8.70;69.40
38325;DHT22;24126;52.672;13.622;2023-02-11T04:45:44;8.70;69.50
38325;DHT22;24126;52.672;13.622;2023-02-11T04:48:11;8.70;69.60
38325;DHT22;24126;52.672;13.622;2023-02-11T04:50:38;8.70;69.70
38325;DHT22;24126;52.672;13.622;2023-02-11T04:53:05;8.70;69.80
38325;DHT22;24126;52.672;13.622;2023-02-11T04:55:32;8.70;69.80
38325;DHT22;24126;52.672;13.622;2023-02-11T04:57:59;8.80;70.00
38325;DHT22;24126;52.672;13.622;2023-02-11T05:00:26;8.70;70.10
38325;DHT22;24126;52.672;13.622;2023-02-11T05:02:53;8.80;70.60
38325;DHT22;24126;52.672;13.622;2023-02-11T05:05:20;8.90;70.40
38325;DHT22;24126;52.672;13.622;2023-02-11T05:07:47;8.90;70.20
38325;DHT22;24126;52.672;13.622;2023-02-11T05:10:15;8.90;70.20
38325;DHT22;24126;52.672;13.622;2023-02-11T05:12:42;8.90;70.30
38325;DHT22;24126;52.672;13.622;2023-02-11T05:15:09;8.90;70.30
38325;DHT22;24126;52.672;13.622;2023-02-11T05:17:36;8.90;70.30
38325;DHT22;24126;52.672;13.622;2023-02-11T05:20:03;8.90;70.40
38325;DHT22;24126;52.672;13.622;2023-02-11T05:22:30;8.90;70.50
38325;DHT22;24126;52.672;13.622;2023-02-11T05:24:57;8.90;70.60
38325;DHT22;24126;52.672;13.622;2023-02-11T05:27:24;8.90;70.70
38325;DHT22;24126;52.672;13.622;2023-02-11T05:29:51;8.90;70.80
38325;DHT22;24126;52.672;13.622;2023-02-11T05:32:18;8.90;70.90
38325;DHT22;24126;52.672;13.622;2023-02-11T05:34:45;8.90;71.20
38325;DHT22;24126;52.672;13.622;2023-02-11T05:37:12;8.90;71.20
38325;DHT22;24126;52.672;13.622;2023-02-11T05:39:39;8.90;71.20
38325;DHT22;24126;52.672;13.622;2023-02-11T05:42:07;8.90;71.30
38325;DHT22;24126;52.672;13.622;2023-02-11T05:44:34;8.90;71.50
38325;DHT22;24126;52.672;13.622;2023-02-11T05:47:01;8.90;71.50
38325;DHT22;24126;52.672;13.622;2023-02-11T05:49:28;8.90;71.70
38325;DHT22;24126;52.672;13.622;2023-02-11T05:51:55;8.90;71.80
38325;DHT22;24126;52.672;13.622;2023-02-11T05:54:22;8.90;71.80
38325;DHT22;24126;52.672;13.622;2023-02-11T05:56:49;8.90;72.00
38325;DHT22;24126;52.672;13.622;2023-02-11T05:59:16;8.90;72.00
38325;DHT22;24126;52.672;13.622;2023-02-11T06:01:43;9.00;72.00
38325;DHT22;24126;52.672;13.622;2023-02-11T06:04:10;9.00;72.20
38325;DHT22;24126;52.672;13.622;2023-02-11T06:06:37;8.90;72.30
38325;DHT22;24126;52.672;13.622;2023-02-11T06:09:04;9.00;72.50
38325;DHT22;24126;52.672;13.622;2023-02-11T06:11:31;9.00;72.50
38325;DHT22;24126;52.672;13.622;2023-02-11T06:13:58;9.00;72.60
38325;DHT22;24126;52.672;13.622;2023-02-11T06:16:25;9.00;72.80
38325;DHT22;24126;52.672;13.622;2023-02-11T06:18:52;9.00;73.00
38325;DHT22;24126;52.672;13.622;2023-02-11T06:21:19;9.00;73.20
38325;DHT22;24126;52.672;13.622;2023-02-11T06:23:46;9.00;73.40
38325;DHT22;24126;52.672;13.622;2023-02-11T06:26:15;9.00;73.40
38325;DHT22;24126;52.672;13.622;2023-02-11T06:28:42;9.00;73.60
38325;DHT22;24126;52.672;13.622;2023-02-11T06:31:09;9.00;73.70
38325;DHT22;24126;52.672;13.622;2023-02-11T06:33:37;9.00;73.70
38325;DHT22;24126;52.672;13.622;2023-02-11T06:36:08;9.00;73.80
38325;DHT22;24126;52.672;13.622;2023-02-11T06:38:36;9.00;73.90
38325;DHT22;24126;52.672;13.622;2023-02-11T06:41:03;9.00;73.90
38325;DHT22;24126;52.672;13.622;2023-02-11T06:43:30;9.10;74.00
38325;DHT22;24126;52.672;13.622;2023-02-11T06:45:57;9.10;74.10
38325;DHT22;24126;52.672;13.622;2023-02-11T06:48:24;9.10;74.10
38325;DHT22;24126;52.672;13.622;2023-02-11T06:50:51;9.10;74.10
38325;DHT22;24126;52.672;13.622;2023-02-11T06:53:18;9.10;74.30
38325;DHT22;24126;52.672;13.622;2023-02-11T06:55:45;9.10;74.40
38325;DHT22;24126;52.672;13.622;2023-02-11T06:58:12;9.10;74.50
38325;DHT22;24126;52.672;13.622;2023-02-11T07:00:40;9.10;74.50
38325;DHT22;24126;52.672;13.622;2023-02-11T07:03:07;9.10;74.60
38325;DHT22;24126;52.672;13.622;2023-02-11T07:05:34;9.20;74.70
38325;DHT22;24126;52.672;13.622;2023-02-11T07:08:05;9.20;74.70
38325;DHT22;24126;52.672;13.622;2023-02-11T07:10:33;9.20;74.60
38325;DHT22;24126;52.672;13.622;2023-02-11T07:13:00;9.20;74.80
38325;DHT22;24126;52.672;13.622;2023-02-11T07:15:27;9.20;74.80
38325;DHT22;24126;52.672;13.622;2023-02-11T07:17:55;9.30;74.90
38325;DHT22;24126;52.672;13.622;2023-02-11T07:20:22;9.30;74.90
38325;DHT22;24126;52.672;13.622;2023-02-11T07:22:49;9.30;75.00
38325;DHT22;24126;52.672;13.622;2023-02-11T07:25:16;9.30;75.00
38325;DHT22;24126;52.672;13.622;2023-02-11T07:27:43;9.40;75.10
38325;DHT22;24126;52.672;13.622;2023-02-11T07:30:10;9.40;75.20
38325;DHT22;24126;52.672;13.622;2023-02-11T07:32:37;9.40;75.30
38325;DHT22;24126;52.672;13.622;2023-02-11T07:35:04;9.40;75.20
38325;DHT22;24126;52.672;13.622;2023-02-11T07:37:34;9.40;75.30
38325;DHT22;24126;52.672;13.622;2023-02-11T07:40:02;9.40;75.40
38325;DHT22;24126;52.672;13.622;2023-02-11T07:42:29;9.50;75.50
38325;DHT22;24126;52.672;13.622;2023-02-11T07:44:56;9.50;75.60
38325;DHT22;24126;52.672;13.622;2023-02-11T07:47:23;9.50;75.60
38325;DHT22;24126;52.672;13.622;2023-02-11T07:49:50;9.50;75.70
38325;DHT22;24126;52.672;13.622;2023-02-11T07:52:17;9.50;75.80
38325;DHT22;24126;52.672;13.622;2023-02-11T07:54:44;9.60;75.80
38325;DHT22;24126;52.672;13.622;2023-02-11T07:57:11;9.60;75.90
38325;DHT22;24126;52.672;13.622;2023-02-11T07:59:38;9.60;76.00
38325;DHT22;24126;52.672;13.622;2023-02-11T08:02:05;9.60;76.20
38325;DHT22;24126;52.672;13.622;2023-02-11T08:04:32;9.60;76.10
38325;DHT22;24126;52.672;13.622;2023-02-11T08:06:59;9.70;76.20
38325;DHT22;24126;52.672;13.622;2023-02-11T08:09:26;9.70;76.20
38325;DHT22;24126;52.672;13.622;2023-02-11T08:11:53;9.80;76.20
38325;DHT22;24126;52.672;13.622;2023-02-11T08:14:20;9.80;76.30
38325;DHT22;24126;52.672;13.622;2023-02-11T08:16:47;9.80;76.40
38325;DHT22;24126;52.672;13.622;2023-02-11T08:19:14;9.80;76.50
38325;DHT22;24126;52.672;13.622;2023-02-11T08:21:42;9.90;76.50
38325;DHT22;24126;52.672;13.622;2023-02-11T08:24:09;9.90;76.50
38325;DHT22;24126;52.672;13.622;2023-02-11T08:26:36;9.90;76.50
38325;DHT22;24126;52.672;13.622;2023-02-11T08:29:06;9.90;76.50
38325;DHT22;24126;52.672;13.622;2023-02-11T08:31:35;9.90;76.50
38325;DHT22;24126;52.672;13.622;2023-02-11T08:34:02;10.00;76.70
38325;DHT22;24126;52.672;13.622;2023-02-11T08:36:33;10.00;76.80
38325;DHT22;24126;52.672;13.622;2023-02-11T08:39:02;10.00;76.80
38325;DHT22;24126;52.672;13.622;2023-02-11T08:41:30;10.00;76.80
38325;DHT22;24126;52.672;13.622;2023-02-11T08:43:58;10.00;76.80
38325;DHT22;24126;52.672;13.622;2023-02-11T08:46:25;10.10;77.00
38325;DHT22;24126;52.672;13.622;2023-02-11T08:48:52;10.10;76.90
38325;DHT22;24126;52.672;13.622;2023-02-11T08:51:21;10.10;77.00
38325;DHT22;24126;52.672;13.622;2023-02-11T08:53:49;10.10;77.00
38325;DHT22;24126;52.672;13.622;2023-02-11T08:56:17;10.10;76.80
38325;DHT22;24126;52.672;13.622;2023-02-11T08:58:44;10.10;76.90
38325;DHT22;24126;52.672;13.622;2023-02-11T09:01:13;10.20;77.00
38325;DHT22;24126;52.672;13.622;2023-02-11T09:03:40;10.20;77.90
38325;DHT22;24126;52.672;13.622;2023-02-11T09:06:08;10.20;77.20
38325;DHT22;24126;52.672;13.622;2023-02-11T09:08:36;10.20;77.30
38325;DHT22;24126;52.672;13.622;2023-02-11T09:11:03;10.20;77.40
38325;DHT22;24126;52.672;13.622;2023-02-11T09:13:31;10.20;77.40
38325;DHT22;24126;52.672;13.622;2023-02-11T09:15:59;10.20;77.40
38325;DHT22;24126;52.672;13.622;2023-02-11T09:18:26;10.20;77.40
38325;DHT22;24126;52.672;13.622;2023-02-11T09:21:00;10.20;77.50
38325;DHT22;24126;52.672;13.622;2023-02-11T09:23:27;10.30;77.40
38325;DHT22;24126;52.672;13.622;2023-02-11T09:25:54;10.30;77.50
38325;DHT22;24126;52.672;13.622;2023-02-11T09:28:21;10.30;77.40
38325;DHT22;24126;52.672;13.622;2023-02-11T09:30:48;10.30;77.50
38325;DHT22;24126;52.672;13.622;2023-02-11T09:33:15;10.30;77.50
38325;DHT22;24126;52.672;13.622;2023-02-11T09:35:42;10.30;77.50
38325;DHT22;24126;52.672;13.622;2023-02-11T09:38:09;10.30;77.60
38325;DHT22;24126;52.672;13.622;2023-02-11T09:40:40;10.30;78.20
38325;DHT22;24126;52.672;13.622;2023-02-11T09:43:13;10.30;77.50
38325;DHT22;24126;52.672;13.622;2023-02-11T09:45:43;10.40;77.60
38325;DHT22;24126;52.672;13.622;2023-02-11T09:48:12;10.40;77.60
38325;DHT22;24126;52.672;13.622;2023-02-11T09:50:50;10.50;77.70
38325;DHT22;24126;52.672;13.622;2023-02-11T09:53:25;10.50;77.60
38325;DHT22;24126;52.672;13.622;2023-02-11T09:55:59;10.50;77.50
38325;DHT22;24126;52.672;13.622;2023-02-11T09:58:27;10.50;77.60
38325;DHT22;24126;52.672;13.622;2023-02-11T10:00:58;10.50;77.70
38325;DHT22;24126;52.672;13.622;2023-02-11T10:06:16;10.60;77.80
38325;DHT22;24126;52.672;13.622;2023-02-11T10:08:58;10.60;77.90
38325;DHT22;24126;52.672;13.622;2023-02-11T10:14:09;10.60;78.00
38325;DHT22;24126;52.672;13.622;2023-02-11T10:21:44;10.60;78.10
38325;DHT22;24126;52.672;13.622;2023-02-11T10:24:16;10.70;78.20
38325;DHT22;24126;52.672;13.622;2023-02-11T10:26:43;10.70;78.20
38325;DHT22;24126;52.672;13.622;2023-02-11T10:29:19;10.70;78.40
38325;DHT22;24126;52.672;13.622;2023-02-11T10:31:48;10.70;78.50
38325;DHT22;24126;52.672;13.622;2023-02-11T10:34:16;10.80;78.40
38325;DHT22;24126;52.672;13.622;2023-02-11T10:36:44;10.90;78.40
38325;DHT22;24126;52.672;13.622;2023-02-11T10:39:52;10.90;78.40
38325;DHT22;24126;52.672;13.622;2023-02-11T10:42:20;11.00;78.30
38325;DHT22;24126;52.672;13.622;2023-02-11T10:44:58;11.00;78.10
38325;DHT22;24126;52.672;13.622;2023-02-11T10:47:27;11.00;78.00
38325;DHT22;24126;52.672;13.622;2023-02-11T10:49:57;11.00;78.20
38325;DHT22;24126;52.672;13.622;2023-02-11T10:52:28;11.00;78.30
38325;DHT22;24126;52.672;13.622;2023-02-11T10:57:25;10.90;78.40
38325;DHT22;24126;52.672;13.622;2023-02-11T10:59:57;11.00;78.50
38325;DHT22;24126;52.672;13.622;2023-02-11T11:02:29;10.90;78.50
38325;DHT22;24126;52.672;13.622;2023-02-11T11:05:00;10.90;78.60
38325;DHT22;24126;52.672;13.622;2023-02-11T11:07:28;10.90;78.70
38325;DHT22;24126;52.672;13.622;2023-02-11T11:10:04;10.90;78.70
38325;DHT22;24126;52.672;13.622;2023-02-11T11:12:33;10.90;78.80
38325;DHT22;24126;52.672;13.622;2023-02-11T11:15:24;10.90;79.00
38325;DHT22;24126;52.672;13.622;2023-02-11T11:17:48;10.90;79.00
38325;DHT22;24126;52.672;13.622;2023-02-11T11:20:24;10.90;79.00
38325;DHT22;24126;52.672;13.622;2023-02-11T11:22:53;10.90;79.00
38325;DHT22;24126;52.672;13.622;2023-02-11T11:25:33;10.90;79.10
38325;DHT22;24126;52.672;13.622;2023-02-11T11:28:03;10.90;79.20
38325;DHT22;24126;52.672;13.622;2023-02-11T11:30:32;10.90;79.20
38325;DHT22;24126;52.672;13.622;2023-02-11T11:32:59;10.90;79.30
38325;DHT22;24126;52.672;13.622;2023-02-11T11:35:28;11.00;79.30
38325;DHT22;24126;52.672;13.622;2023-02-11T11:37:59;11.00;79.30
38325;DHT22;24126;52.672;13.622;2023-02-11T11:40:28;11.00;79.40
38325;DHT22;24126;52.672;13.622;2023-02-11T11:43:03;11.00;79.60
38325;DHT22;24126;52.672;13.622;2023-02-11T11:45:31;11.10;79.60
38325;DHT22;24126;52.672;13.622;2023-02-11T11:50:44;11.10;79.50
38325;DHT22;24126;52.672;13.622;2023-02-11T11:53:14;11.10;79.70
38325;DHT22;24126;52.672;13.622;2023-02-11T11:55:45;11.10;79.60
38325;DHT22;24126;52.672;13.622;2023-02-11T11:58:20;11.10;79.70
38325;DHT22;24126;52.672;13.622;2023-02-11T12:03:43;11.10;79.70
38325;DHT22;24126;52.672;13.622;2023-02-11T12:09:02;11.20;79.60
38325;DHT22;24126;52.672;13.622;2023-02-11T12:11:47;11.20;79.40
38325;DHT22;24126;52.672;13.622;2023-02-11T12:17:02;11.30;79.70
38325;DHT22;24126;52.672;13.622;2023-02-11T12:22:25;11.30;79.70
38325;DHT22;24126;52.672;13.622;2023-02-11T12:25:05;11.30;79.70
38325;DHT22;24126;52.672;13.622;2023-02-11T12:27:38;11.30;79.70
38325;DHT22;24126;52.672;13.622;2023-02-11T12:32:46;11.30;79.60
38325;DHT22;24126;52.672;13.622;2023-02-11T12:36:24;11.40;79.70
38325;DHT22;24126;52.672;13.622;2023-02-11T12:40:44;11.40;79.80
38325;DHT22;24126;52.672;13.622;2023-02-11T12:48:33;11.40;80.00
38325;DHT22;24126;52.672;13.622;2023-02-11T12:54:03;11.40;80.10
38325;DHT22;24126;52.672;13.622;2023-02-11T12:56:36;11.40;80.10
38325;DHT22;24126;52.672;13.622;2023-02-11T12:59:07;11.40;80.20
38325;DHT22;24126;52.672;13.622;2023-02-11T13:01:38;11.40;80.00
38325;DHT22;24126;52.672;13.622;2023-02-11T13:06:40;11.40;80.20
38325;DHT22;24126;52.672;13.622;2023-02-11T13:09:10;11.50;80.30
38325;DHT22;24126;52.672;13.622;2023-02-11T13:11:39;11.40;80.60
38325;DHT22;24126;52.672;13.622;2023-02-11T13:14:14;11.50;80.50
38325;DHT22;24126;52.672;13.622;2023-02-11T13:16:43;11.50;80.40
38325;DHT22;24126;52.672;13.622;2023-02-11T13:21:53;11.50;80.40
38325;DHT22;24126;52.672;13.622;2023-02-11T13:26:56;11.50;80.40
38325;DHT22;24126;52.672;13.622;2023-02-11T13:29:29;11.50;80.60
38325;DHT22;24126;52.672;13.622;2023-02-11T13:32:06;11.50;80.60
38325;DHT22;24126;52.672;13.622;2023-02-11T13:39:59;11.50;80.60
38325;DHT22;24126;52.672;13.622;2023-02-11T13:42:27;11.60;80.70
38325;DHT22;24126;52.672;13.622;2023-02-11T13:44:54;11.60;80.70
38325;DHT22;24126;52.672;13.622;2023-02-11T13:47:26;11.60;80.60
38325;DHT22;24126;52.672;13.622;2023-02-11T13:49:55;11.60;80.60
38325;DHT22;24126;52.672;13.622;2023-02-11T13:52:32;11.70;80.60
38325;DHT22;24126;52.672;13.622;2023-02-11T13:57:32;11.70;80.80
38325;DHT22;24126;52.672;13.622;2023-02-11T14:00:01;11.70;80.80
38325;DHT22;24126;52.672;13.622;2023-02-11T14:02:36;11.60;80.80
38325;DHT22;24126;52.672;13.622;2023-02-11T14:05:25;11.60;80.80
38325;DHT22;24126;52.672;13.622;2023-02-11T14:13:28;11.60;80.80
38325;DHT22;24126;52.672;13.622;2023-02-11T14:16:10;11.60;80.90
38325;DHT22;24126;52.672;13.622;2023-02-11T14:21:12;11.60;81.10
38325;DHT22;24126;52.672;13.622;2023-02-11T14:23:40;11.60;81.00
38325;DHT22;24126;52.672;13.622;2023-02-11T14:31:32;11.60;81.20
38325;DHT22;24126;52.672;13.622;2023-02-11T14:42:14;11.60;81.30
38325;DHT22;24126;52.672;13.622;2023-02-11T14:44:43;11.60;81.20
38325;DHT22;24126;52.672;13.622;2023-02-11T14:47:15;11.70;81.50
38325;DHT22;24126;52.672;13.622;2023-02-11T14:49:43;11.70;81.50
38325;DHT22;24126;52.672;13.622;2023-02-11T14:54:49;11.70;81.40
38325;DHT22;24126;52.672;13.622;2023-02-11T14:57:17;11.70;81.50
38325;DHT22;24126;52.672;13.622;2023-02-11T14:59:56;11.70;81.60
38325;DHT22;24126;52.672;13.622;2023-02-11T15:02:28;11.70;81.60
38325;DHT22;24126;52.672;13.622;2023-02-11T15:05:12;11.60;81.60
38325;DHT22;24126;52.672;13.622;2023-02-11T15:07:42;11.70;81.70
38325;DHT22;24126;52.672;13.622;2023-02-11T15:10:14;11.70;81.70
38325;DHT22;24126;52.672;13.622;2023-02-11T15:12:43;11.70;82.50
38325;DHT22;24126;52.672;13.622;2023-02-11T15:15:13;11.70;81.90
38325;DHT22;24126;52.672;13.622;2023-02-11T15:17:41;11.70;81.80
38325;DHT22;24126;52.672;13.622;2023-02-11T15:20:15;11.70;81.80
38325;DHT22;24126;52.672;13.622;2023-02-11T15:22:44;11.70;81.90
38325;DHT22;24126;52.672;13.622;2023-02-11T15:25:13;11.70;81.80
38325;DHT22;24126;52.672;13.622;2023-02-11T15:27:42;11.70;81.90
38325;DHT22;24126;52.672;13.622;2023-02-11T15:32:53;11.70;81.90
38325;DHT22;24126;52.672;13.622;2023-02-11T15:35:24;11.70;81.90
38325;DHT22;24126;52.672;13.622;2023-02-11T15:37:53;11.70;81.80
38325;DHT22;24126;52.672;13.622;2023-02-11T15:40:22;11.70;81.90
38325;DHT22;24126;52.672;13.622;2023-02-11T15:42:57;11.70;81.90
38325;DHT22;24126;52.672;13.622;2023-02-11T15:48:08;11.70;81.90
38325;DHT22;24126;52.672;13.622;2023-02-11T15:50:35;11.70;82.00
38325;DHT22;24126;52.672;13.622;2023-02-11T15:55:51;11.70;81.90
38325;DHT22;24126;52.672;13.622;2023-02-11T15:58:19;11.70;81.90
38325;DHT22;24126;52.672;13.622;2023-02-11T16:00:49;11.80;82.00
38325;DHT22;24126;52.672;13.622;2023-02-11T16:03:28;11.80;82.10
38325;DHT22;24126;52.672;13.622;2023-02-11T16:08:54;11.80;82.00
38325;DHT22;24126;52.672;13.622;2023-02-11T16:11:24;11.80;82.00
38325;DHT22;24126;52.672;13.622;2023-02-11T16:13:51;11.80;82.00
38325;DHT22;24126;52.672;13.622;2023-02-11T16:16:26;11.80;82.10
38325;DHT22;24126;52.672;13.622;2023-02-11T16:19:00;11.80;82.00
38325;DHT22;24126;52.672;13.622;2023-02-11T16:21:32;11.80;82.00
38325;DHT22;24126;52.672;13.622;2023-02-11T16:24:00;11.80;82.00
38325;DHT22;24126;52.672;13.622;2023-02-11T16:26:39;11.80;82.00
38325;DHT22;24126;52.672;13.622;2023-02-11T16:29:15;11.80;82.00
38325;DHT22;24126;52.672;13.622;2023-02-11T16:31:43;11.80;82.00
38325;DHT22;24126;52.672;13.622;2023-02-11T16:34:16;11.90;82.30
38325;DHT22;24126;52.672;13.622;2023-02-11T16:36:44;11.90;82.20
38325;DHT22;24126;52.672;13.622;2023-02-11T16:39:11;11.90;82.10
38325;DHT22;24126;52.672;13.622;2023-02-11T16:41:38;11.90;82.00
38325;DHT22;24126;52.672;13.622;2023-02-11T16:44:05;11.90;82.00
38325;DHT22;24126;52.672;13.622;2023-02-11T16:46:32;11.90;81.90
38325;DHT22;24126;52.672;13.622;2023-02-11T16:49:04;11.90;81.90
38325;DHT22;24126;52.672;13.622;2023-02-11T16:51:34;11.90;82.00
38325;DHT22;24126;52.672;13.622;2023-02-11T16:54:02;11.90;82.00
38325;DHT22;24126;52.672;13.622;2023-02-11T16:56:29;11.90;81.90
38325;DHT22;24126;52.672;13.622;2023-02-11T16:58:56;11.90;81.90
38325;DHT22;24126;52.672;13.622;2023-02-11T17:01:23;11.90;82.00
38325;DHT22;24126;52.672;13.622;2023-02-11T17:03:50;11.90;81.90
38325;DHT22;24126;52.672;13.622;2023-02-11T17:06:18;11.90;81.90
38325;DHT22;24126;52.672;13.622;2023-02-11T17:08:45;11.90;81.90
38325;DHT22;24126;52.672;13.622;2023-02-11T17:11:12;11.90;82.00
38325;DHT22;24126;52.672;13.622;2023-02-11T17:13:42;11.90;82.00
38325;DHT22;24126;52.672;13.622;2023-02-11T17:16:12;11.90;82.00
38325;DHT22;24126;52.672;13.622;2023-02-11T17:18:41;11.90;82.10
38325;DHT22;24126;52.672;13.622;2023-02-11T17:21:08;11.90;82.20
38325;DHT22;24126;52.672;13.622;2023-02-11T17:23:35;11.90;82.20
38325;DHT22;24126;52.672;13.622;2023-02-11T17:26:03;12.00;82.30
38325;DHT22;24126;52.672;13.622;2023-02-11T17:28:31;12.00;82.10
38325;DHT22;24126;52.672;13.622;2023-02-11T17:30:58;12.00;81.90